createdAt,value
2022-12-15T00:01:20.777Z,99118.72
2022-12-15T00:06:40.960Z,99129.41
2022-12-15T00:12:01.151Z,99126.69
2022-12-15T00:17:21.292Z,99137.13
2022-12-15T00:22:41.636Z,99134.19
2022-12-15T00:28:01.783Z,99122.44
2022-12-15T00:33:29.647Z,99122.81
2022-12-15T00:38:42.216Z,99120.13
2022-12-15T00:43:44.332Z,99127.16
2022-12-15T00:48:46.868Z,99140.81
2022-12-15T00:54:07.049Z,99149.75
2022-12-15T00:59:27.475Z,99150.53
2022-12-15T01:04:48.092Z,99153.78
2022-12-15T01:10:08.155Z,99154.50
2022-12-15T01:15:28.287Z,99162.31
2022-12-15T01:20:34.577Z,99171.09
2022-12-15T01:25:38.707Z,99182.47
2022-12-15T01:30:40.363Z,99193.28
2022-12-15T01:35:42.155Z,99197.63
2022-12-15T01:40:51.276Z,99205.75
2022-12-15T01:45:55.094Z,99200.97
2022-12-15T01:50:59.651Z,99207.22
2022-12-15T01:56:01.812Z,99218.56
2022-12-15T02:01:04.051Z,99226.97
2022-12-15T02:06:06.578Z,99234.06
2022-12-15T02:11:13.817Z,99239.44
2022-12-15T02:16:27.661Z,99237.31
2022-12-15T02:22:17.170Z,99240.78
2022-12-15T02:27:42.742Z,99247.19
2022-12-15T02:32:50.623Z,99248.47
2022-12-15T02:37:52.393Z,99253.22
2022-12-15T02:42:54.729Z,99252.31
2022-12-15T02:48:02.036Z,99260.34
2022-12-15T02:53:33.543Z,99251.47
2022-12-15T02:58:53.720Z,99261.84
2022-12-15T03:03:56.353Z,99271.22
2022-12-15T03:08:57.976Z,99283.66
2022-12-15T03:13:59.674Z,99287.13
2022-12-15T03:19:01.309Z,99282.72
2022-12-15T03:24:02.971Z,99297.31
2022-12-15T03:29:04.625Z,99309.53
2022-12-15T03:34:06.263Z,99311.38
2022-12-15T03:39:07.948Z,99310.31
2022-12-15T03:44:09.556Z,99325.63
2022-12-15T03:49:11.326Z,99330.38
2022-12-15T03:54:13.195Z,99331.94
2022-12-15T03:59:14.902Z,99327.41
2022-12-15T04:04:16.585Z,99335.25
2022-12-15T04:09:19.408Z,99339.44
2022-12-15T04:14:21.023Z,99350.09
2022-12-15T04:19:41.573Z,99365.19
2022-12-15T04:25:01.728Z,99367.13
2022-12-15T04:30:22.475Z,99388.31
2022-12-15T04:35:42.461Z,99393.97
2022-12-15T04:41:02.919Z,99388.00
2022-12-15T04:46:23.184Z,99408.47
2022-12-15T04:51:43.503Z,99417.66
2022-12-15T04:57:03.748Z,99417.88
2022-12-15T05:02:24.576Z,99425.31
2022-12-15T05:07:45.761Z,99417.66
2022-12-15T05:13:06.037Z,99426.72
2022-12-15T05:18:26.113Z,99440.63
2022-12-15T05:23:47.032Z,99450.53
2022-12-15T05:29:07.360Z,99455.50
2022-12-15T05:34:09.004Z,99454.66
2022-12-15T05:39:10.623Z,99467.16
2022-12-15T05:44:12.546Z,99472.59
2022-12-15T05:49:15.893Z,99466.84
2022-12-15T05:54:19.533Z,99483.69
2022-12-15T05:59:21.219Z,99490.91
2022-12-15T06:04:22.955Z,99496.34
2022-12-15T06:09:24.599Z,99494.69
2022-12-15T06:14:26.254Z,99509.06
2022-12-15T06:19:27.890Z,99508.84
2022-12-15T06:24:29.532Z,99514.63
2022-12-15T06:29:31.196Z,99514.69
2022-12-15T06:34:32.806Z,99522.06
2022-12-15T06:39:34.470Z,99529.31
2022-12-15T06:44:36.102Z,99550.91
2022-12-15T06:49:38.364Z,99556.88
2022-12-15T06:54:40.284Z,99559.44
2022-12-15T06:59:41.849Z,99568.28
2022-12-15T07:04:43.969Z,99573.03
2022-12-15T07:09:45.607Z,99569.63
2022-12-15T07:14:53.079Z,99579.44
2022-12-15T07:19:55.136Z,99584.81
2022-12-15T07:24:56.897Z,99583.34
2022-12-15T07:29:58.457Z,99596.41
2022-12-15T07:35:00.594Z,99605.19
2022-12-15T07:40:02.222Z,99602.59
2022-12-15T07:45:05.442Z,99616.88
2022-12-15T07:50:07.408Z,99623.16
2022-12-15T07:55:09.753Z,99632.63
2022-12-15T08:00:11.815Z,99643.22
2022-12-15T08:05:14.264Z,99628.53
2022-12-15T08:10:16.000Z,99616.75
2022-12-15T08:15:17.589Z,99627.00
2022-12-15T08:20:19.199Z,99632.97
2022-12-15T08:25:20.930Z,99637.69
2022-12-15T08:30:23.347Z,99651.94
2022-12-15T08:35:55.247Z,99660.38
2022-12-15T08:40:46.569Z,99663.06
2022-12-15T08:45:48.391Z,99660.56
2022-12-15T08:50:52.056Z,99672.25
2022-12-15T08:55:54.192Z,99674.81
2022-12-15T09:01:04.381Z,99663.00
2022-12-15T09:06:08.130Z,99668.13
2022-12-15T09:11:09.856Z,99666.94
2022-12-15T09:16:16.102Z,99671.66
2022-12-15T09:21:19.282Z,99678.91
2022-12-15T09:26:22.420Z,99673.16
2022-12-15T09:31:28.387Z,99679.78
2022-12-15T09:36:32.435Z,99675.28
2022-12-15T09:41:36.001Z,99681.72
2022-12-15T09:47:05.665Z,99680.41
2022-12-15T09:52:13.211Z,99687.97
2022-12-15T09:57:23.974Z,99693.22
2022-12-15T10:02:49.685Z,99698.16
2022-12-15T10:07:51.703Z,99701.38
2022-12-15T10:13:01.060Z,99693.00
2022-12-15T10:18:20.668Z,99702.91
2022-12-15T10:23:22.415Z,99710.91
2022-12-15T10:28:35.717Z,99710.56
2022-12-15T10:33:47.141Z,99714.25
2022-12-15T10:38:50.855Z,99717.38
2022-12-15T10:43:54.684Z,99719.66
2022-12-15T10:49:23.236Z,99728.91
2022-12-15T10:54:27.488Z,99726.75
2022-12-15T10:59:37.268Z,99716.91
2022-12-15T11:04:39.115Z,99726.91
2022-12-15T11:09:40.864Z,99718.88
2022-12-15T11:15:06.904Z,99704.88
2022-12-15T11:20:31.819Z,99728.06
2022-12-15T11:25:36.926Z,99717.03
2022-12-15T11:30:42.832Z,99717.50
2022-12-15T11:41:33.718Z,99709.56
2022-12-15T11:46:43.120Z,99707.44
2022-12-15T11:51:51.886Z,99709.66
2022-12-15T11:57:16.809Z,99714.44
2022-12-15T12:02:44.301Z,99708.16
2022-12-15T12:08:01.326Z,99706.13
2022-12-15T12:13:26.613Z,99705.34
2022-12-15T12:18:34.836Z,99696.59
2022-12-15T12:23:55.964Z,99685.50
2022-12-15T12:29:30.645Z,99681.25
2022-12-15T12:34:51.580Z,99684.97
2022-12-15T12:39:58.491Z,99681.41
2022-12-15T12:45:12.156Z,99681.56
2022-12-15T12:50:24.180Z,99692.38
2022-12-15T12:55:31.113Z,99692.44
2022-12-15T13:00:35.895Z,99691.50
2022-12-15T13:05:43.395Z,99689.56
2022-12-15T13:10:47.498Z,99686.94
2022-12-15T13:16:09.269Z,99683.19
2022-12-15T13:21:25.267Z,99682.47
2022-12-15T13:26:31.134Z,99679.84
2022-12-15T13:31:36.111Z,99676.91
2022-12-15T13:36:37.894Z,99670.13
2022-12-15T13:42:07.553Z,99676.50
2022-12-15T13:47:10.182Z,99689.88
2022-12-15T13:53:08.030Z,99693.78
2022-12-15T13:58:01.982Z,99706.81
2022-12-15T14:03:06.922Z,99698.28
2022-12-15T14:08:16.616Z,99711.72
2022-12-15T14:13:25.337Z,99715.00
2022-12-15T14:18:34.329Z,99721.31
2022-12-15T14:24:04.113Z,99706.22
2022-12-15T14:29:06.490Z,99701.13
2022-12-15T14:34:27.725Z,99699.97
2022-12-15T14:39:37.888Z,99701.06
2022-12-15T14:44:49.986Z,99708.44
2022-12-15T14:49:54.688Z,99709.75
2022-12-15T14:54:58.918Z,99722.72
2022-12-15T15:00:00.577Z,99710.06
2022-12-15T15:03:04.785Z,99716.25
2022-12-15T15:05:05.143Z,99704.25
2022-12-15T15:10:24.604Z,99701.81
2022-12-15T15:15:26.906Z,99706.47
2022-12-15T15:20:30.743Z,99705.22
2022-12-15T15:25:41.392Z,99709.47
2022-12-15T15:30:59.206Z,99711.69
2022-12-15T15:36:02.717Z,99703.31
2022-12-15T15:41:17.720Z,99716.81
2022-12-15T15:46:31.197Z,99707.41
2022-12-15T15:51:33.315Z,99694.63
2022-12-15T15:56:35.103Z,99703.66
2022-12-15T16:01:36.904Z,99708.94
2022-12-15T16:06:43.495Z,99705.59
2022-12-15T16:11:48.596Z,99726.56
2022-12-15T16:16:50.232Z,99730.72
2022-12-15T16:21:52.222Z,99733.75
2022-12-15T16:26:54.065Z,99742.38
2022-12-15T16:31:55.994Z,99742.50
2022-12-15T16:36:58.311Z,99745.41
2022-12-15T16:42:00.388Z,99736.88
2022-12-15T16:47:02.083Z,99742.00
2022-12-15T16:52:03.886Z,99763.13
2022-12-15T16:57:09.469Z,99768.53
2022-12-15T17:02:31.651Z,99771.72
2022-12-15T17:07:33.495Z,99756.94
2022-12-15T17:12:35.532Z,99755.88
2022-12-15T17:17:37.234Z,99760.84
2022-12-15T17:22:38.890Z,99768.88
2022-12-15T17:27:40.532Z,99773.50
2022-12-15T17:32:43.560Z,99758.63
2022-12-15T17:37:45.497Z,99756.94
2022-12-15T17:42:47.962Z,99746.47
2022-12-15T17:47:51.801Z,99748.97
2022-12-15T17:52:53.460Z,99756.66
2022-12-15T17:57:55.610Z,99766.41
2022-12-15T18:02:59.320Z,99755.94
2022-12-15T18:08:04.050Z,99744.56
2022-12-15T18:13:18.017Z,99741.06
2022-12-15T18:18:20.979Z,99724.28
2022-12-15T18:23:27.943Z,99736.59
2022-12-15T18:28:31.752Z,99735.88
2022-12-15T18:33:33.911Z,99749.97
2022-12-15T18:38:36.049Z,99757.06
2022-12-15T18:43:37.548Z,99759.84
2022-12-15T18:48:40.239Z,99765.25
2022-12-15T18:53:42.041Z,99759.97
2022-12-15T18:58:44.061Z,99752.09
2022-12-15T19:03:45.791Z,99751.25
2022-12-15T19:08:48.959Z,99742.50
2022-12-15T19:13:50.932Z,99741.63
2022-12-15T19:19:21.925Z,99737.31
2022-12-15T19:24:47.283Z,99743.78
2022-12-15T19:29:50.049Z,99736.91
2022-12-15T19:34:52.800Z,99742.09
2022-12-15T19:39:55.043Z,99742.59
2022-12-15T19:44:56.723Z,99747.00
2022-12-15T19:49:58.291Z,99742.50
2022-12-15T19:54:59.978Z,99749.19
2022-12-15T20:00:01.540Z,99738.50
2022-12-15T20:05:13.526Z,99733.09
2022-12-15T20:10:31.928Z,99736.53
2022-12-15T20:15:34.859Z,99733.91
2022-12-15T20:20:37.490Z,99736.47
2022-12-15T20:25:45.302Z,99725.72
2022-12-15T20:30:47.227Z,99719.59
2022-12-15T20:35:52.866Z,99705.38
2022-12-15T20:40:54.790Z,99705.28
2022-12-15T20:46:04.255Z,99692.91
2022-12-15T20:51:09.469Z,99684.09
2022-12-15T20:56:11.750Z,99677.91
2022-12-15T21:01:25.572Z,99668.94
2022-12-15T21:06:30.273Z,99665.09
2022-12-15T21:11:36.920Z,99655.31
2022-12-15T21:16:38.603Z,99670.13
2022-12-15T21:21:43.440Z,99664.16
2022-12-15T21:26:45.853Z,99647.44
2022-12-15T21:31:50.369Z,99648.28
2022-12-15T21:36:55.613Z,99652.63
2022-12-15T21:42:16.082Z,99643.88
2022-12-15T21:47:25.974Z,99646.59
2022-12-15T21:52:27.629Z,99649.13
2022-12-15T21:57:30.702Z,99642.16
2022-12-15T22:02:32.505Z,99642.00
2022-12-15T22:07:43.421Z,99649.84
2022-12-15T22:12:59.326Z,99651.50
2022-12-15T22:18:05.567Z,99659.09
2022-12-15T22:23:09.235Z,99664.28
2022-12-15T22:28:27.946Z,99660.34
2022-12-15T22:33:29.606Z,99660.19
2022-12-15T22:38:35.801Z,99671.22
2022-12-15T22:43:44.821Z,99665.94
2022-12-15T22:54:23.185Z,99675.00
2022-12-15T22:59:28.784Z,99672.59
2022-12-15T23:04:31.422Z,99672.66
2022-12-15T23:09:33.185Z,99690.19
2022-12-15T23:14:53.497Z,99695.38
2022-12-15T23:19:55.090Z,99692.88
2022-12-15T23:24:57.069Z,99682.81
2022-12-15T23:29:58.611Z,99664.69
2022-12-15T23:35:00.719Z,99640.13
2022-12-15T23:40:02.713Z,99638.50
2022-12-15T23:45:05.376Z,99642.00
2022-12-15T23:50:07.778Z,99639.13
2022-12-15T23:55:10.202Z,99647.97
